Time;durP1;ratioP1;P1;durP2;ratioP2;P2;SDS_P1;SDS_P2;PMS_P1;PMS_P2;Temp;Humidity;BMP_temperature;BMP_pressure;BME280_temperature;BME280_humidity;BME280_pressure;Samples;Min_cycle;Max_cycle;Signal;HPM_P1;HPM_P2
2022/02/24 00:01:15;;;;;;;8.57;3.40;;;;;;;;;;5960174;29;20046;-74
2022/02/24 00:04:20;;;;;;;16.50;4.00;;;;;;;;;;5959992;29;20065;-74
2022/02/24 00:07:25;;;;;;;10.00;3.33;;;;;;;;;;5959838;29;20047;-75
2022/02/24 00:10:29;;;;;;;9.80;3.50;;;;;;;;;;5960335;29;20098;-73
2022/02/24 00:13:32;;;;;;;8.65;3.47;;;;;;;;;;5960570;29;20127;-75
2022/02/24 00:16:35;;;;;;;7.80;2.85;;;;;;;;;;5958043;29;20373;-74
2022/02/24 00:19:42;;;;;;;9.18;3.05;;;;;;;;;;5960697;29;20597;-75
2022/02/24 00:22:45;;;;;;;8.17;2.97;;;;;;;;;;5960561;29;20077;-74
2022/02/24 00:25:48;;;;;;;8.88;3.30;;;;;;;;;;5959319;29;20053;-75
2022/02/24 00:28:52;;;;;;;10.27;2.90;;;;;;;;;;5958829;29;20406;-74
2022/02/24 00:31:55;;;;;;;9.27;2.90;;;;;;;;;;5958855;29;20126;-74
2022/02/24 00:35:02;;;;;;;9.40;3.05;;;;;;;;;;5956410;29;20062;-74
2022/02/24 00:38:05;;;;;;;6.30;2.85;;;;;;;;;;5956276;29;20091;-74
2022/02/24 00:41:09;;;;;;;9.95;3.05;;;;;;;;;;5958379;29;20059;-75
2022/02/24 00:44:12;;;;;;;11.15;3.22;;;;;;;;;;5957450;29;20463;-74
2022/02/24 00:47:15;;;;;;;7.28;2.95;;;;;;;;;;5958962;29;20047;-74
2022/02/24 00:50:21;;;;;;;;;;;;;;;;;;5960469;29;20418;-74
2022/02/24 00:53:26;;;;;;;9.52;2.78;;;;;;;;;;5960161;29;19951;-74
2022/02/24 00:56:29;;;;;;;4.18;2.35;;;;;;;;;;5959100;29;20499;-75
2022/02/24 00:59:33;;;;;;;6.28;2.63;;;;;;;;;;5959546;29;20058;-75
2022/02/24 01:02:36;;;;;;;7.97;3.03;;;;;;;;;;5958477;29;20047;-75
2022/02/24 01:05:39;;;;;;;10.13;3.28;;;;;;;;;;5959575;29;20517;-75
2022/02/24 01:08:44;;;;;;;5.50;2.50;;;;;;;;;;5958690;29;20486;-75
2022/02/24 01:11:48;;;;;;;10.70;2.90;;;;;;;;;;5962585;29;20058;-75
2022/02/24 01:14:58;;;;;;;9.25;2.65;;;;;;;;;;5962899;29;20062;-75
2022/02/24 01:18:01;;;;;;;8.13;2.70;;;;;;;;;;5962916;29;20059;-75
2022/02/24 01:21:04;;;;;;;6.50;2.60;;;;;;;;;;5962428;29;20207;-74
2022/02/24 01:24:11;;;;;;;5.50;2.75;;;;;;;;;;5960029;29;20047;-75
2022/02/24 01:27:17;;;;;;;8.27;2.60;;;;;;;;;;5959728;29;20099;-74
2022/02/24 01:30:21;;;;;;;7.93;3.33;;;;;;;;;;5961960;29;20047;-75
2022/02/24 01:33:26;;;;;;;10.40;3.30;;;;;;;;;;5961865;29;20509;-74
2022/02/24 01:36:30;;;;;;;7.25;2.55;;;;;;;;;;5961032;29;20058;-74
2022/02/24 01:39:35;;;;;;;7.82;2.90;;;;;;;;;;5962282;29;20464;-75
2022/02/24 01:42:40;;;;;;;7.63;2.70;;;;;;;;;;5961954;29;20062;-75
2022/02/24 01:45:44;;;;;;;10.40;3.50;;;;;;;;;;5963684;29;20512;-74
2022/02/24 01:48:48;;;;;;;6.68;2.75;;;;;;;;;;5962348;29;20050;-74
2022/02/24 01:51:51;;;;;;;10.27;3.00;;;;;;;;;;5961963;29;20043;-75
2022/02/24 01:54:56;;;;;;;7.15;2.67;;;;;;;;;;5961858;29;20054;-74
2022/02/24 01:57:59;;;;;;;8.75;3.28;;;;;;;;;;5961923;29;20547;-75
2022/02/24 02:01:05;;;;;;;8.57;2.70;;;;;;;;;;5961917;29;20384;-74
2022/02/24 02:04:09;;;;;;;9.32;2.75;;;;;;;;;;5961254;29;20105;-74
2022/02/24 02:07:13;;;;;;;7.32;2.75;;;;;;;;;;5963031;29;20417;-75
2022/02/24 02:10:18;;;;;;;8.50;2.58;;;;;;;;;;5961681;29;20181;-75
2022/02/24 02:13:21;;;;;;;6.05;2.50;;;;;;;;;;5962609;29;20054;-75
2022/02/24 02:16:25;;;;;;;8.65;2.55;;;;;;;;;;5961277;29;20051;-75
2022/02/24 02:19:29;;;;;;;6.30;2.42;;;;;;;;;;5962468;29;20490;-75
2022/02/24 02:22:34;;;;;;;5.45;2.40;;;;;;;;;;5961119;29;20195;-75
2022/02/24 02:25:39;;;;;;;7.72;2.75;;;;;;;;;;5962378;29;20061;-74
2022/02/24 02:28:43;;;;;;;6.65;2.22;;;;;;;;;;5962412;29;20058;-74
2022/02/24 02:31:46;;;;;;;5.75;2.47;;;;;;;;;;5961209;29;20055;-76
2022/02/24 02:34:49;;;;;;;5.82;2.30;;;;;;;;;;5960707;29;20572;-75
2022/02/24 02:37:58;;;;;;;5.65;2.45;;;;;;;;;;5960955;29;20188;-74
2022/02/24 02:41:01;;;;;;;5.60;2.28;;;;;;;;;;5960926;29;20102;-75
2022/02/24 02:44:05;;;;;;;7.32;2.25;;;;;;;;;;5962092;29;20058;-75
2022/02/24 02:47:08;;;;;;;9.80;2.17;;;;;;;;;;5960422;29;20475;-74
2022/02/24 02:50:12;;;;;;;5.63;2.38;;;;;;;;;;5958639;29;20080;-75
2022/02/24 02:53:19;;;;;;;5.63;2.30;;;;;;;;;;5959699;29;20057;-75
2022/02/24 02:56:23;;;;;;;6.22;2.20;;;;;;;;;;5961491;29;20135;-75
2022/02/24 02:59:28;;;;;;;4.47;2.47;;;;;;;;;;5960482;29;20051;-74
2022/02/24 03:02:32;;;;;;;7.63;2.35;;;;;;;;;;5960311;29;20208;-75
2022/02/24 03:05:36;;;;;;;9.30;2.42;;;;;;;;;;5960250;29;20058;-75
2022/02/24 03:08:41;;;;;;;4.80;1.90;;;;;;;;;;5960032;29;20047;-75
2022/02/24 03:11:44;;;;;;;7.88;2.33;;;;;;;;;;5958746;29;20054;-74
2022/02/24 03:14:57;;;;;;;5.07;2.05;;;;;;;;;;5959035;29;20051;-74
2022/02/24 03:18:02;;;;;;;6.32;2.58;;;;;;;;;;5957506;29;20081;-75
2022/02/24 03:21:05;;;;;;;9.13;2.55;;;;;;;;;;5957667;29;20418;-74
2022/02/24 03:24:10;;;;;;;8.93;2.20;;;;;;;;;;5958894;29;20073;-74
2022/02/24 03:27:14;;;;;;;7.50;2.00;;;;;;;;;;5959054;29;20058;-74
2022/02/24 03:30:18;;;;;;;7.05;2.20;;;;;;;;;;5945198;29;20073;-74
2022/02/24 03:33:21;;;;;;;6.25;2.25;;;;;;;;;;5959069;29;20055;-74
2022/02/24 03:36:24;;;;;;;10.05;2.20;;;;;;;;;;5959896;29;20046;-74
2022/02/24 03:39:29;;;;;;;5.28;2.10;;;;;;;;;;5959530;29;20054;-74
2022/02/24 03:42:33;;;;;;;6.75;2.13;;;;;;;;;;5959637;29;20078;-74
2022/02/24 03:45:37;;;;;;;6.80;2.28;;;;;;;;;;5959963;29;20411;-74
2022/02/24 03:48:40;;;;;;;13.45;3.00;;;;;;;;;;5960789;29;20050;-75
2022/02/24 03:51:44;;;;;;;10.95;2.17;;;;;;;;;;5960881;29;20056;-75
2022/02/24 03:54:48;;;;;;;6.60;2.22;;;;;;;;;;5959669;29;20491;-74
2022/02/24 03:57:52;;;;;;;8.52;2.22;;;;;;;;;;5959602;29;20512;-74
2022/02/24 04:00:55;;;;;;;8.20;2.13;;;;;;;;;;5960692;29;20050;-74
2022/02/24 04:04:03;;;;;;;6.72;1.88;;;;;;;;;;5960242;29;20066;-75
2022/02/24 04:07:06;;;;;;;12.40;2.22;;;;;;;;;;5959682;29;20085;-75
2022/02/24 04:10:12;;;;;;;4.72;2.00;;;;;;;;;;5959238;29;20062;-74
2022/02/24 04:13:17;;;;;;;6.15;1.83;;;;;;;;;;5960519;29;20058;-75
2022/02/24 04:16:20;;;;;;;2.88;1.70;;;;;;;;;;5959179;29;20047;-74
2022/02/24 04:19:26;;;;;;;7.20;2.00;;;;;;;;;;5959410;29;20061;-74
2022/02/24 04:22:31;;;;;;;5.97;1.95;;;;;;;;;;5959200;29;20051;-74
2022/02/24 04:25:36;;;;;;;3.45;1.80;;;;;;;;;;5959085;29;20116;-74
2022/02/24 04:28:39;;;;;;;6.18;2.45;;;;;;;;;;5960556;29;20448;-74
2022/02/24 04:31:47;;;;;;;3.78;2.10;;;;;;;;;;5958970;29;20054;-74
2022/02/24 04:34:51;;;;;;;6.13;1.98;;;;;;;;;;5960218;29;20046;-73
2022/02/24 04:37:55;;;;;;;5.40;1.90;;;;;;;;;;5960173;29;20047;-74
2022/02/24 04:41:00;;;;;;;5.47;1.75;;;;;;;;;;5960595;29;20406;-75
2022/02/24 04:44:03;;;;;;;7.18;2.00;;;;;;;;;;5962061;29;20555;-74
2022/02/24 04:47:07;;;;;;;6.28;1.90;;;;;;;;;;5964657;29;20059;-74
2022/02/24 04:50:12;;;;;;;10.07;2.20;;;;;;;;;;5963908;29;20107;-74
2022/02/24 04:53:15;;;;;;;5.18;2.50;;;;;;;;;;5963070;29;20873;-74
2022/02/24 04:56:20;;;;;;;7.70;2.00;;;;;;;;;;5962974;29;20078;-73
2022/02/24 04:59:23;;;;;;;9.23;2.53;;;;;;;;;;5964390;29;20123;-75
2022/02/24 05:02:27;;;;;;;8.63;2.75;;;;;;;;;;5964114;29;20141;-74
2022/02/24 05:05:30;;;;;;;10.15;3.38;;;;;;;;;;5963942;29;20422;-74
2022/02/24 05:08:34;;;;;;;9.95;2.58;;;;;;;;;;5962890;29;20062;-75
2022/02/24 05:11:39;;;;;;;4.80;2.05;;;;;;;;;;5963236;29;20047;-74
2022/02/24 05:14:43;;;;;;;5.65;2.17;;;;;;;;;;5962581;29;20525;-73
2022/02/24 05:17:47;;;;;;;7.55;2.03;;;;;;;;;;5962518;29;20051;-74
2022/02/24 05:20:50;;;;;;;6.55;2.50;;;;;;;;;;5962644;29;20127;-74
2022/02/24 05:23:53;;;;;;;5.75;1.83;;;;;;;;;;5963822;29;20062;-74
2022/02/24 05:27:02;;;;;;;7.82;2.83;;;;;;;;;;5962364;29;20073;-74
2022/02/24 05:30:06;;;;;;;14.32;2.65;;;;;;;;;;5962366;29;20051;-75
2022/02/24 05:33:15;;;;;;;3.20;1.73;;;;;;;;;;5962583;29;20069;-75
2022/02/24 05:36:18;;;;;;;4.85;1.85;;;;;;;;;;5962646;29;20059;-74
2022/02/24 05:39:21;;;;;;;7.05;2.10;;;;;;;;;;5962005;29;20122;-75
2022/02/24 05:42:28;;;;;;;8.90;2.25;;;;;;;;;;5947326;29;20066;-75
2022/02/24 05:45:31;;;;;;;7.07;2.35;;;;;;;;;;5961855;29;20047;-75
2022/02/24 05:48:34;;;;;;;8.38;2.40;;;;;;;;;;5963397;29;20051;-75
2022/02/24 05:51:38;;;;;;;5.25;2.03;;;;;;;;;;5946822;29;20133;-75
2022/02/24 05:54:41;;;;;;;12.70;3.05;;;;;;;;;;5962483;29;20073;-74
2022/02/24 05:57:48;;;;;;;7.77;2.60;;;;;;;;;;5961927;29;20075;-75
2022/02/24 06:00:51;;;;;;;14.05;4.22;;;;;;;;;;5961535;29;20299;-75
2022/02/24 06:03:56;;;;;;;14.27;3.88;;;;;;;;;;5961759;29;20561;-75
2022/02/24 06:07:00;;;;;;;12.65;3.33;;;;;;;;;;5962745;29;20047;-74
2022/02/24 06:10:04;;;;;;;8.50;3.28;;;;;;;;;;5961519;29;20536;-74
2022/02/24 06:13:09;;;;;;;11.70;3.17;;;;;;;;;;5963022;29;20090;-75
2022/02/24 06:16:13;;;;;;;9.10;2.87;;;;;;;;;;5961551;29;20051;-74
2022/02/24 06:19:16;;;;;;;4.32;2.70;;;;;;;;;;5962453;29;20111;-75
2022/02/24 06:22:19;;;;;;;9.70;3.58;;;;;;;;;;5961031;29;20058;-74
2022/02/24 06:25:22;;;;;;;12.05;3.55;;;;;;;;;;5961431;29;20062;-74
2022/02/24 06:28:29;;;;;;;13.63;5.38;;;;;;;;;;5960948;29;20056;-75
2022/02/24 06:31:34;;;;;;;15.20;4.97;;;;;;;;;;5962086;29;20050;-75
2022/02/24 06:34:37;;;;;;;15.80;4.72;;;;;;;;;;5961332;29;20061;-75
2022/02/24 06:37:42;;;;;;;9.50;3.83;;;;;;;;;;5946092;29;20051;-74
2022/02/24 06:40:48;;;;;;;16.15;5.85;;;;;;;;;;5960705;29;20142;-75
2022/02/24 06:43:56;;;;;;;17.58;6.35;;;;;;;;;;5960699;29;20051;-75
2022/02/24 06:47:02;;;;;;;13.73;4.00;;;;;;;;;;5961025;29;20051;-74
2022/02/24 06:50:06;;;;;;;11.68;4.95;;;;;;;;;;5961584;29;20066;-75
2022/02/24 06:53:10;;;;;;;7.65;4.38;;;;;;;;;;5939741;29;20058;-74
2022/02/24 06:56:14;;;;;;;10.43;4.00;;;;;;;;;;5938226;30;20477;-74
2022/02/24 06:59:22;;;;;;;9.00;4.20;;;;;;;;;;5938157;30;20177;-75
2022/02/24 07:02:27;;;;;;;11.38;3.78;;;;;;;;;;5939143;30;20051;-74
2022/02/24 07:05:30;;;;;;;11.73;3.88;;;;;;;;;;5938665;29;20055;-74
2022/02/24 07:08:33;;;;;;;8.80;3.90;;;;;;;;;;5938326;29;20047;-74
2022/02/24 07:11:36;;;;;;;8.50;3.75;;;;;;;;;;5937517;30;20115;-72
2022/02/24 07:14:48;;;;;;;9.68;3.53;;;;;;;;;;5937477;30;20101;-74
2022/02/24 07:17:52;;;;;;;13.15;3.97;;;;;;;;;;5922960;30;20063;-74
2022/02/24 07:20:58;;;;;;;8.15;4.03;;;;;;;;;;5938875;30;20151;-75
2022/02/24 07:24:01;;;;;;;9.98;4.05;;;;;;;;;;5937414;30;20463;-75
2022/02/24 07:27:06;;;;;;;10.82;5.65;;;;;;;;;;5937368;30;20491;-74
2022/02/24 07:30:12;;;;;;;18.40;6.50;;;;;;;;;;5940340;29;20047;-74
2022/02/24 07:33:16;;;;;;;11.85;5.93;;;;;;;;;;5948894;29;20483;-74
2022/02/24 07:36:19;;;;;;;18.83;7.13;;;;;;;;;;5954135;29;20095;-74
2022/02/24 07:39:24;;;;;;;18.70;8.38;;;;;;;;;;5961117;29;20046;-74
2022/02/24 07:42:28;;;;;;;17.88;7.65;;;;;;;;;;5959519;29;20081;-74
2022/02/24 07:45:36;;;;;;;17.70;8.30;;;;;;;;;;5959120;29;20051;-74
2022/02/24 07:48:39;;;;;;;15.35;7.90;;;;;;;;;;5959304;29;20073;-73
2022/02/24 07:51:47;;;;;;;17.08;8.38;;;;;;;;;;5960871;29;20039;-73
2022/02/24 07:54:51;;;;;;;20.98;8.50;;;;;;;;;;5960619;29;20057;-74
2022/02/24 07:57:56;;;;;;;18.50;9.00;;;;;;;;;;5974293;29;20050;-73
2022/02/24 08:01:03;;;;;;;24.45;9.10;;;;;;;;;;5959602;29;20065;-74
2022/02/24 08:04:06;;;;;;;20.08;10.15;;;;;;;;;;5960627;29;20070;-73
2022/02/24 08:07:09;;;;;;;15.43;9.43;;;;;;;;;;5958969;29;20455;-76
2022/02/24 08:10:13;;;;;;;24.20;9.93;;;;;;;;;;5959128;29;20095;-73
2022/02/24 08:13:16;;;;;;;19.75;8.95;;;;;;;;;;5960471;29;20575;-73
2022/02/24 08:16:20;;;;;;;24.08;8.38;;;;;;;;;;5959218;29;20043;-75
2022/02/24 08:19:24;;;;;;;22.40;8.77;;;;;;;;;;5961391;29;20050;-73
2022/02/24 08:22:29;;;;;;;23.00;8.68;;;;;;;;;;5979101;29;20074;-75
2022/02/24 08:25:34;;;;;;;16.77;7.22;;;;;;;;;;5964888;29;20042;-72
2022/02/24 08:28:39;;;;;;;17.05;6.57;;;;;;;;;;5964621;29;20054;-71
2022/02/24 08:31:46;;;;;;;22.10;6.88;;;;;;;;;;5963203;29;20057;-73
2022/02/24 08:34:50;;;;;;;13.32;6.45;;;;;;;;;;5963450;29;20054;-72
2022/02/24 08:37:53;;;;;;;22.13;7.65;;;;;;;;;;5964519;29;20050;-76
2022/02/24 08:40:56;;;;;;;16.08;6.53;;;;;;;;;;5961894;29;20481;-74
2022/02/24 08:44:00;;;;;;;16.10;7.22;;;;;;;;;;5961506;29;20959;-73
2022/02/24 08:47:05;;;;;;;21.73;7.40;;;;;;;;;;5955550;29;20194;-73
2022/02/24 08:50:11;;;;;;;15.25;7.35;;;;;;;;;;5949971;29;20061;-73
2022/02/24 08:53:34;;;;;;;30.67;6.75;;;;;;;;;;5940363;29;20051;-74
2022/02/24 08:56:37;;;;;;;17.27;6.25;;;;;;;;;;5946243;29;20141;-74
2022/02/24 08:59:40;;;;;;;44.70;20.08;;;;;;;;;;5961886;29;20062;-75
2022/02/24 09:02:45;;;;;;;17.75;7.20;;;;;;;;;;5963745;29;20050;-74
2022/02/24 09:05:49;;;;;;;17.48;5.50;;;;;;;;;;5963804;29;20348;-73
2022/02/24 09:08:52;;;;;;;14.02;5.82;;;;;;;;;;5963703;29;20406;-73
2022/02/24 09:11:55;;;;;;;11.68;5.68;;;;;;;;;;5963616;29;20108;-77
2022/02/24 09:14:59;;;;;;;17.80;6.22;;;;;;;;;;5960566;29;20050;-74
2022/02/24 09:18:04;;;;;;;13.93;6.38;;;;;;;;;;5963439;29;20108;-76
2022/02/24 09:21:07;;;;;;;20.48;7.32;;;;;;;;;;5963840;29;20058;-74
2022/02/24 09:24:12;;;;;;;20.70;7.40;;;;;;;;;;5962136;29;20054;-74
2022/02/24 09:27:18;;;;;;;15.75;7.10;;;;;;;;;;5960701;29;20050;-74
2022/02/24 09:30:21;;;;;;;17.92;7.95;;;;;;;;;;5958349;29;20058;-74
2022/02/24 09:33:34;;;;;;;22.00;8.63;;;;;;;;;;5959425;29;20107;-76
2022/02/24 09:36:38;;;;;;;19.35;8.20;;;;;;;;;;5959329;29;20050;-76
2022/02/24 09:39:41;;;;;;;23.25;8.27;;;;;;;;;;5959290;29;20058;-75
2022/02/24 09:42:45;;;;;;;17.50;8.10;;;;;;;;;;5961542;29;20105;-73
2022/02/24 09:45:48;;;;;;;20.52;8.35;;;;;;;;;;5961693;29;20133;-73
2022/02/24 09:48:55;;;;;;;17.40;7.82;;;;;;;;;;5963754;29;20506;-75
2022/02/24 09:51:59;;;;;;;18.67;6.70;;;;;;;;;;5961631;29;20057;-75
2022/02/24 09:55:02;;;;;;;13.45;5.68;;;;;;;;;;5960991;29;20047;-74
2022/02/24 09:58:07;;;;;;;13.95;6.32;;;;;;;;;;5961781;29;20561;-77
2022/02/24 10:01:12;;;;;;;12.05;4.90;;;;;;;;;;5961417;29;20050;-73
2022/02/24 10:04:23;;;;;;;12.15;4.35;;;;;;;;;;5961147;29;20061;-74
2022/02/24 10:07:26;;;;;;;8.90;3.97;;;;;;;;;;5962491;29;20076;-75
2022/02/24 10:10:33;;;;;;;8.60;3.88;;;;;;;;;;5963080;29;20810;-76
2022/02/24 10:13:37;;;;;;;10.68;3.35;;;;;;;;;;5961096;29;20624;-75
2022/02/24 10:16:54;;;;;;;8.15;3.20;;;;;;;;;;5961054;29;20180;-75
2022/02/24 10:20:00;;;;;;;7.78;3.55;;;;;;;;;;5962196;29;20047;-75
2022/02/24 10:23:03;;;;;;;7.37;3.37;;;;;;;;;;5962801;29;20035;-75
2022/02/24 10:26:07;;;;;;;11.63;4.18;;;;;;;;;;5962257;29;20050;-74
2022/02/24 10:29:10;;;;;;;11.57;3.45;;;;;;;;;;5961080;29;20141;-73
2022/02/24 10:32:28;;;;;;;9.23;3.35;;;;;;;;;;5961163;29;20047;-74
2022/02/24 10:35:34;;;;;;;8.48;4.03;;;;;;;;;;5961963;29;20054;-74
2022/02/24 10:38:38;;;;;;;12.45;4.97;;;;;;;;;;5961912;29;20080;-74
2022/02/24 10:41:42;;;;;;;10.38;3.90;;;;;;;;;;5961667;29;20494;-74
2022/02/24 10:44:46;;;;;;;11.13;3.60;;;;;;;;;;5962020;29;20525;-74
2022/02/24 10:47:56;;;;;;;12.60;3.80;;;;;;;;;;5962050;29;20050;-74
2022/02/24 10:51:03;;;;;;;7.30;3.38;;;;;;;;;;5959694;29;20063;-74
2022/02/24 10:54:09;;;;;;;7.95;3.28;;;;;;;;;;5958134;29;20042;-74
2022/02/24 10:57:21;;;;;;;8.98;3.40;;;;;;;;;;5958681;29;20051;-73
2022/02/24 11:00:25;;;;;;;6.28;2.95;;;;;;;;;;5959110;29;20051;-74
2022/02/24 11:03:29;;;;;;;11.52;3.50;;;;;;;;;;5957162;29;20501;-75
2022/02/24 11:06:34;;;;;;;8.88;3.17;;;;;;;;;;5958652;29;20055;-74
2022/02/24 11:09:42;;;;;;;9.55;2.55;;;;;;;;;;5957366;29;20047;-73
2022/02/24 11:12:45;;;;;;;9.63;3.25;;;;;;;;;;5958321;29;20043;-73
2022/02/24 11:15:48;;;;;;;6.50;2.58;;;;;;;;;;5959600;29;20058;-72
2022/02/24 11:18:57;;;;;;;11.07;3.10;;;;;;;;;;5961196;29;20094;-75
2022/02/24 11:22:02;;;;;;;6.80;2.70;;;;;;;;;;5960997;29;20051;-73
2022/02/24 11:25:09;;;;;;;6.47;2.22;;;;;;;;;;5960933;29;20058;-73
2022/02/24 11:28:15;;;;;;;9.07;2.58;;;;;;;;;;5960930;29;20050;-73
2022/02/24 11:31:23;;;;;;;7.03;2.67;;;;;;;;;;5960980;29;20160;-73
2022/02/24 11:34:49;;;;;;;9.77;2.40;;;;;;;;;;5959194;29;20054;-74
2022/02/24 11:37:56;;;;;;;7.25;2.38;;;;;;;;;;5959618;29;20054;-74
2022/02/24 11:41:04;;;;;;;9.38;3.30;;;;;;;;;;5960854;29;20051;-75
2022/02/24 11:44:07;;;;;;;16.60;7.28;;;;;;;;;;5960477;29;20494;-75
2022/02/24 11:47:11;;;;;;;7.88;3.47;;;;;;;;;;5960742;29;20055;-75
2022/02/24 11:50:19;;;;;;;8.25;2.33;;;;;;;;;;5961329;29;20047;-74
2022/02/24 11:53:33;;;;;;;10.73;2.80;;;;;;;;;;5959829;29;20060;-74
2022/02/24 11:56:36;;;;;;;7.25;2.83;;;;;;;;;;5960571;29;20380;-73
2022/02/24 11:59:51;;;;;;;23.27;10.35;;;;;;;;;;5959337;29;20054;-74
2022/02/24 12:02:54;;;;;;;12.10;6.25;;;;;;;;;;5960403;29;20418;-73
2022/02/24 12:06:05;;;;;;;6.07;2.65;;;;;;;;;;5944485;29;20077;-73
2022/02/24 12:09:17;;;;;;;9.10;2.63;;;;;;;;;;5958499;29;20062;-72
2022/02/24 12:12:23;;;;;;;8.35;2.70;;;;;;;;;;5959627;29;20050;-73
2022/02/24 12:15:29;;;;;;;12.45;3.42;;;;;;;;;;5960260;29;20155;-72
2022/02/24 12:18:36;;;;;;;11.05;2.60;;;;;;;;;;5960437;29;20043;-72
2022/02/24 12:21:41;;;;;;;7.70;2.58;;;;;;;;;;5960086;29;20488;-74
2022/02/24 12:24:49;;;;;;;7.20;2.72;;;;;;;;;;5959326;29;20059;-75
2022/02/24 12:28:01;;;;;;;8.68;2.38;;;;;;;;;;5960126;29;20417;-73
2022/02/24 12:31:17;;;;;;;9.73;2.60;;;;;;;;;;5959652;29;20054;-74
2022/02/24 12:34:21;;;;;;;13.50;5.35;;;;;;;;;;5958736;29;20047;-72
2022/02/24 12:37:28;;;;;;;5.68;2.33;;;;;;;;;;5960193;29;20426;-72
2022/02/24 12:40:33;;;;;;;5.70;2.72;;;;;;;;;;5958762;29;20104;-73
2022/02/24 12:43:36;;;;;;;16.67;7.70;;;;;;;;;;5958205;29;20107;-73
2022/02/24 12:46:39;;;;;;;11.93;4.97;;;;;;;;;;5959061;29;20062;-73
2022/02/24 12:49:43;;;;;;;6.35;2.72;;;;;;;;;;5959729;29;20055;-73
2022/02/24 12:52:46;;;;;;;6.13;2.38;;;;;;;;;;5959429;29;20191;-73
2022/02/24 12:55:51;;;;;;;7.43;2.53;;;;;;;;;;5958841;29;20522;-73
2022/02/24 12:58:54;;;;;;;;;;;;;;;;;;5960710;29;20050;-73
2022/02/24 13:01:59;;;;;;;6.00;2.08;;;;;;;;;;5958932;29;20301;-73
2022/02/24 13:05:03;;;;;;;6.25;2.28;;;;;;;;;;5959555;29;20078;-72
2022/02/24 13:11:34;;;;;;;3.92;1.73;;;;;;;;;;5962093;29;20114;-72
2022/02/24 13:14:43;;;;;;;7.35;2.45;;;;;;;;;;5963549;29;20055;-72
2022/02/24 13:17:48;;;;;;;5.82;2.20;;;;;;;;;;5963898;29;20133;-73
2022/02/24 13:20:58;;;;;;;6.43;2.40;;;;;;;;;;5962569;29;20559;-72
2022/02/24 13:24:02;;;;;;;7.80;2.13;;;;;;;;;;5963796;29;20054;-72
2022/02/24 13:27:09;;;;;;;9.07;2.30;;;;;;;;;;5962885;29;20055;-74
2022/02/24 13:30:13;;;;;;;7.60;2.10;;;;;;;;;;5963886;29;20089;-71
2022/02/24 13:33:16;;;;;;;6.22;2.40;;;;;;;;;;5963186;29;20050;-73
2022/02/24 13:36:30;;;;;;;7.82;2.67;;;;;;;;;;5961954;29;20062;-72
2022/02/24 13:39:34;;;;;;;10.20;2.78;;;;;;;;;;5963065;29;20055;-72
2022/02/24 13:42:39;;;;;;;8.95;2.67;;;;;;;;;;5963394;29;20047;-72
2022/02/24 13:45:43;;;;;;;6.28;3.10;;;;;;;;;;5961801;29;20490;-73
2022/02/24 13:48:47;;;;;;;7.15;2.95;;;;;;;;;;5961183;29;20558;-72
2022/02/24 13:51:50;;;;;;;5.07;2.20;;;;;;;;;;5963432;29;20058;-73
2022/02/24 13:54:57;;;;;;;6.55;2.53;;;;;;;;;;5962651;29;20061;-74
2022/02/24 13:58:04;;;;;;;7.78;2.53;;;;;;;;;;5961606;29;20125;-74
2022/02/24 14:01:08;;;;;;;5.45;2.40;;;;;;;;;;5962756;29;20129;-72
2022/02/24 14:04:14;;;;;;;7.43;2.78;;;;;;;;;;5962831;29;20403;-75
2022/02/24 14:07:29;;;;;;;6.50;2.13;;;;;;;;;;5962803;29;20050;-74
2022/02/24 14:10:34;;;;;;;8.55;2.60;;;;;;;;;;5962114;29;20069;-73
2022/02/24 14:13:40;;;;;;;10.20;2.67;;;;;;;;;;5961631;29;20055;-73
2022/02/24 14:16:43;;;;;;;8.38;2.45;;;;;;;;;;5961943;29;20107;-74
2022/02/24 14:19:46;;;;;;;10.60;2.72;;;;;;;;;;5962055;29;20054;-75
2022/02/24 14:22:50;;;;;;;10.43;4.07;;;;;;;;;;5960871;29;20088;-74
2022/02/24 14:25:55;;;;;;;7.57;2.35;;;;;;;;;;5961173;29;20058;-74
2022/02/24 14:29:00;;;;;;;10.48;2.90;;;;;;;;;;5962156;29;20471;-74
2022/02/24 14:32:04;;;;;;;6.83;2.37;;;;;;;;;;5960114;29;20570;-74
2022/02/24 14:35:10;;;;;;;10.40;2.60;;;;;;;;;;5961089;29;20051;-73
2022/02/24 14:38:17;;;;;;;5.35;2.35;;;;;;;;;;5960736;29;20065;-75
2022/02/24 14:41:21;;;;;;;11.65;2.42;;;;;;;;;;5960573;29;20058;-73
2022/02/24 14:44:28;;;;;;;12.77;2.40;;;;;;;;;;5960548;29;20066;-74
2022/02/24 14:47:31;;;;;;;7.00;2.55;;;;;;;;;;5962261;29;20038;-74
2022/02/24 14:50:34;;;;;;;6.75;2.22;;;;;;;;;;5961253;29;20268;-74
2022/02/24 14:53:38;;;;;;;8.50;2.33;;;;;;;;;;5959660;29;20491;-76
2022/02/24 14:56:43;;;;;;;10.25;2.33;;;;;;;;;;5961936;29;20062;-75
2022/02/24 14:59:49;;;;;;;129.35;12.75;;;;;;;;;;5960160;29;20058;-75
2022/02/24 15:02:53;;;;;;;22.02;5.07;;;;;;;;;;5959959;29;20115;-74
2022/02/24 15:05:58;;;;;;;9.77;2.38;;;;;;;;;;5960034;29;20058;-74
2022/02/24 15:09:02;;;;;;;7.70;2.05;;;;;;;;;;5960337;29;20058;-75
2022/02/24 15:12:10;;;;;;;35.28;5.93;;;;;;;;;;5961212;29;20055;-74
2022/02/24 15:15:17;;;;;;;9.13;2.20;;;;;;;;;;5960527;29;20557;-75
2022/02/24 15:18:23;;;;;;;11.57;2.85;;;;;;;;;;5960669;29;20051;-75
2022/02/24 15:21:26;;;;;;;8.15;2.10;;;;;;;;;;5959855;29;20058;-74
2022/02/24 15:24:29;;;;;;;8.27;2.63;;;;;;;;;;5958858;29;20054;-72
2022/02/24 15:27:33;;;;;;;43.20;20.15;;;;;;;;;;5955866;29;20062;-73
2022/02/24 15:30:38;;;;;;;11.70;3.08;;;;;;;;;;5958268;29;20518;-74
2022/02/24 15:33:42;;;;;;;6.28;2.42;;;;;;;;;;5956678;29;20521;-73
2022/02/24 15:36:45;;;;;;;8.38;2.10;;;;;;;;;;5956353;29;20047;-74
2022/02/24 15:39:49;;;;;;;5.65;2.25;;;;;;;;;;5957413;29;20081;-73
2022/02/24 15:42:53;;;;;;;10.32;2.20;;;;;;;;;;5960988;29;20069;-74
2022/02/24 15:45:59;;;;;;;97.07;48.72;;;;;;;;;;5960001;29;20055;-75
2022/02/24 15:49:03;;;;;;;21.83;9.15;;;;;;;;;;5959691;29;20456;-75
2022/02/24 15:52:06;;;;;;;8.57;2.60;;;;;;;;;;5960501;29;20513;-75
2022/02/24 15:55:11;;;;;;;14.93;4.18;;;;;;;;;;5959145;29;20304;-73
2022/02/24 15:58:16;;;;;;;6.95;2.20;;;;;;;;;;5959041;29;20191;-71
2022/02/24 16:01:24;;;;;;;13.95;2.85;;;;;;;;;;5959286;29;20058;-72
2022/02/24 16:04:27;;;;;;;11.32;2.58;;;;;;;;;;5960376;29;20074;-74
2022/02/24 16:07:30;;;;;;;13.85;2.53;;;;;;;;;;5958467;29;20055;-74
2022/02/24 16:10:36;;;;;;;9.60;2.58;;;;;;;;;;5961197;29;20106;-74
2022/02/24 16:13:39;;;;;;;9.50;2.90;;;;;;;;;;5960356;29;20054;-74
2022/02/24 16:16:46;;;;;;;9.30;2.40;;;;;;;;;;5960375;29;20103;-75
2022/02/24 16:19:49;;;;;;;6.53;2.37;;;;;;;;;;5960176;29;20047;-73
2022/02/24 16:22:53;;;;;;;7.78;2.70;;;;;;;;;;5960614;29;20320;-73
2022/02/24 16:25:56;;;;;;;7.90;2.78;;;;;;;;;;5958835;29;20112;-73
2022/02/24 16:29:02;;;;;;;;;;;;;;;;;;5959931;29;20055;-74
2022/02/24 16:32:10;;;;;;;11.27;2.80;;;;;;;;;;5959456;29;19936;-74
2022/02/24 16:35:14;;;;;;;6.15;2.70;;;;;;;;;;5959728;29;20193;-73
2022/02/24 16:38:17;;;;;;;10.05;2.70;;;;;;;;;;5960108;29;20051;-73
2022/02/24 16:41:24;;;;;;;8.90;2.40;;;;;;;;;;5963867;29;20067;-74
2022/02/24 16:44:27;;;;;;;10.00;3.22;;;;;;;;;;5964958;29;20051;-73
2022/02/24 16:47:31;;;;;;;8.75;2.70;;;;;;;;;;5963211;29;20051;-74
2022/02/24 16:50:41;;;;;;;13.55;3.30;;;;;;;;;;5962554;29;20054;-73
2022/02/24 16:53:45;;;;;;;11.57;3.33;;;;;;;;;;5964578;29;20540;-74
2022/02/24 16:56:49;;;;;;;11.43;3.17;;;;;;;;;;5962670;29;20050;-74
2022/02/24 17:00:01;;;;;;;10.27;2.92;;;;;;;;;;5963825;29;20051;-74
2022/02/24 17:03:06;;;;;;;21.38;8.05;;;;;;;;;;5962840;29;20054;-76
2022/02/24 17:06:10;;;;;;;15.37;4.70;;;;;;;;;;5963828;29;20059;-74
2022/02/24 17:09:13;;;;;;;12.43;4.20;;;;;;;;;;5962044;29;20061;-74
2022/02/24 17:12:18;;;;;;;13.50;4.38;;;;;;;;;;5961771;29;20132;-76
2022/02/24 17:15:23;;;;;;;13.30;5.22;;;;;;;;;;5962692;29;20086;-75
2022/02/24 17:18:28;;;;;;;12.93;3.97;;;;;;;;;;5962072;29;20045;-75
2022/02/24 17:21:33;;;;;;;16.30;5.03;;;;;;;;;;5962028;29;20116;-72
2022/02/24 17:24:36;;;;;;;17.88;4.78;;;;;;;;;;5962109;29;20050;-73
2022/02/24 17:27:39;;;;;;;17.17;5.93;;;;;;;;;;5962160;29;20047;-73
2022/02/24 17:30:43;;;;;;;13.00;4.93;;;;;;;;;;5962006;29;20050;-72
2022/02/24 17:33:49;;;;;;;14.82;5.00;;;;;;;;;;5962842;29;20050;-72
2022/02/24 17:36:52;;;;;;;19.92;4.85;;;;;;;;;;5961505;29;20133;-72
2022/02/24 17:39:58;;;;;;;18.85;4.78;;;;;;;;;;5959693;29;20518;-73
2022/02/24 17:43:08;;;;;;;16.20;4.93;;;;;;;;;;5958670;29;20503;-74
2022/02/24 17:46:12;;;;;;;10.48;3.58;;;;;;;;;;5959929;29;20130;-75
2022/02/24 17:49:16;;;;;;;12.95;3.90;;;;;;;;;;5961847;29;20050;-74
2022/02/24 17:52:20;;;;;;;12.07;4.15;;;;;;;;;;5960510;29;20055;-74
2022/02/24 17:55:25;;;;;;;13.07;4.10;;;;;;;;;;5958396;29;20054;-75
2022/02/24 17:58:30;;;;;;;12.77;4.10;;;;;;;;;;5961103;29;20062;-75
2022/02/24 18:01:34;;;;;;;19.75;4.40;;;;;;;;;;5958575;29;20426;-75
2022/02/24 18:04:39;;;;;;;19.50;5.25;;;;;;;;;;5957945;29;20080;-74
2022/02/24 18:07:42;;;;;;;9.07;4.43;;;;;;;;;;5960080;29;20565;-75
2022/02/24 18:10:46;;;;;;;14.88;4.95;;;;;;;;;;5959881;29;20332;-75
2022/02/24 18:13:49;;;;;;;17.05;5.68;;;;;;;;;;5961256;29;20516;-75
2022/02/24 18:16:55;;;;;;;14.95;4.70;;;;;;;;;;5960924;29;20050;-75
2022/02/24 18:19:59;;;;;;;13.80;4.67;;;;;;;;;;5962240;29;20043;-75
2022/02/24 18:23:03;;;;;;;18.17;5.72;;;;;;;;;;5960980;29;20325;-75
2022/02/24 18:26:06;;;;;;;15.55;5.65;;;;;;;;;;5960015;29;20047;-76